Time;durP1;ratioP1;P1;durP2;ratioP2;P2;SDS_P1;SDS_P2;PMS_P1;PMS_P2;Temp;Humidity;BMP_temperature;BMP_pressure;BME280_temperature;BME280_humidity;BME280_pressure;Samples;Min_cycle;Max_cycle;Signal;HPM_P1;HPM_P2
2023/01/22 00:01:30;;;;;;;27.75;13.25;;;;;;;5.71;100.00;96742.94;5020770;28;20077;-49
2023/01/22 00:03:59;;;;;;;24.38;13.77;;;;;;;6.35;100.00;96734.09;5028005;28;20080;-51
2023/01/22 00:06:27;;;;;;;24.30;13.13;;;;;;;6.44;100.00;96736.03;5027106;28;20077;-46
2023/01/22 00:08:56;;;;;;;25.90;12.40;;;;;;;6.24;100.00;96734.88;5027859;28;20081;-50
2023/01/22 00:11:24;;;;;;;25.23;13.10;;;;;;;6.56;100.00;96731.66;5029350;28;20071;-51
2023/01/22 00:13:54;;;;;;;23.10;12.82;;;;;;;6.83;100.00;96726.16;5044659;28;20564;-51
2023/01/22 00:16:22;;;;;;;26.70;13.27;;;;;;;7.02;100.00;96722.97;5026535;28;20069;-50
2023/01/22 00:18:50;;;;;;;24.33;12.52;;;;;;;6.65;100.00;96728.38;5026921;28;20611;-46
2023/01/22 00:21:19;;;;;;;22.13;12.85;;;;;;;6.69;100.00;96728.97;5026360;28;20069;-49
2023/01/22 00:23:47;;;;;;;25.27;13.05;;;;;;;6.78;100.00;96721.28;5029247;28;20072;-50
2023/01/22 00:26:17;;;;;;;21.95;12.50;;;;;;;6.75;100.00;96729.38;5028343;28;20140;-54
2023/01/22 00:28:45;;;;;;;20.97;12.93;;;;;;;6.72;100.00;96721.72;5045518;28;20078;-49
2023/01/22 00:31:16;;;;;;;22.90;12.40;;;;;;;6.54;100.00;96723.94;5027163;28;20530;-48
2023/01/22 00:33:46;;;;;;;20.80;11.93;;;;;;;6.75;100.00;96718.88;5024364;28;20076;-53
2023/01/22 00:36:16;;;;;;;21.17;12.68;;;;;;;6.79;100.00;96722.94;5023569;28;20085;-48
2023/01/22 00:38:45;;;;;;;24.45;13.18;;;;;;;6.55;100.00;96727.38;5025620;28;20084;-49
2023/01/22 00:41:14;;;;;;;20.83;12.65;;;;;;;6.82;100.00;96721.88;5045183;28;20076;-45
2023/01/22 00:43:42;;;;;;;22.50;12.55;;;;;;;6.44;100.00;96736.03;5027777;28;20077;-49
2023/01/22 00:46:13;;;;;;;23.42;13.00;;;;;;;6.64;100.00;96737.16;5026888;28;20076;-53
2023/01/22 00:48:45;;;;;;;23.77;12.98;;;;;;;6.80;98.48;96734.25;5023223;28;20065;-50
2023/01/22 00:51:14;;;;;;;22.70;13.05;;;;;;;6.83;100.00;96734.03;5026879;28;20072;-48
2023/01/22 00:53:43;;;;;;;23.13;13.10;;;;;;;6.75;100.00;96733.78;5023554;28;20081;-49
2023/01/22 00:56:13;;;;;;;20.42;12.10;;;;;;;6.42;100.00;96736.13;5024151;28;20065;-50
2023/01/22 00:58:42;;;;;;;20.67;12.35;;;;;;;6.47;100.00;96735.81;5021780;28;20117;-49
2023/01/22 01:01:12;;;;;;;21.70;12.15;;;;;;;6.15;100.00;96732.91;5023693;28;20071;-53
2023/01/22 01:03:41;;;;;;;23.10;11.70;;;;;;;6.23;100.00;96738.44;5030123;28;20081;-50
2023/01/22 01:06:14;;;;;;;21.60;12.20;;;;;;;6.44;100.00;96737.81;5025907;28;20069;-48
2023/01/22 01:08:43;;;;;;;20.45;12.18;;;;;;;6.56;100.00;96736.91;5025807;28;20454;-49
2023/01/22 01:11:13;;;;;;;21.95;12.60;;;;;;;6.27;100.00;96744.28;5024578;28;20439;-50
2023/01/22 01:13:43;;;;;;;23.92;13.02;;;;;;;6.53;100.00;96739.75;5036982;28;20073;-51
2023/01/22 01:16:14;;;;;;;24.13;13.35;;;;;;;6.88;100.00;96737.13;5027516;28;20073;-49
2023/01/22 01:18:42;;;;;;;;;;;;;;;6.73;100.00;96738.28;5023623;28;20065;-49
2023/01/22 01:21:12;;;;;;;23.17;12.45;;;;;;;6.62;100.00;96744.31;5030053;28;19971;-49
2023/01/22 01:23:41;;;;;;;24.83;13.02;;;;;;;6.42;100.00;96743.16;5030211;28;20068;-49
2023/01/22 01:26:11;;;;;;;20.85;12.15;;;;;;;7.17;100.00;96748.06;5021791;28;20087;-48
2023/01/22 01:28:40;;;;;;;23.35;13.00;;;;;;;7.19;100.00;96745.31;5030566;28;20473;-49
2023/01/22 01:31:11;;;;;;;23.85;12.50;;;;;;;7.16;96.08;96743.78;5024664;28;20085;-46
2023/01/22 01:33:40;;;;;;;22.13;13.15;;;;;;;7.42;94.00;96744.38;5025789;28;20081;-50
2023/01/22 01:36:13;;;;;;;24.00;13.57;;;;;;;7.25;96.42;96742.22;5025605;28;20321;-47
2023/01/22 01:38:42;;;;;;;21.20;11.82;;;;;;;7.56;93.84;96735.44;5022325;28;20327;-50
2023/01/22 01:41:12;;;;;;;23.02;12.98;;;;;;;7.23;93.05;96744.16;5027236;28;20092;-48
2023/01/22 01:43:41;;;;;;;23.75;13.45;;;;;;;6.52;100.00;96751.19;5024261;28;20100;-48
2023/01/22 01:46:16;;;;;;;22.77;13.00;;;;;;;6.86;100.00;96744.28;5026608;28;20080;-49
2023/01/22 01:48:46;;;;;;;21.40;11.90;;;;;;;6.96;100.00;96745.28;5041073;28;20107;-50
2023/01/22 01:51:20;;;;;;;22.77;12.60;;;;;;;7.03;100.00;96737.78;5020524;28;20089;-52
2023/01/22 01:53:49;;;;;;;21.85;11.93;;;;;;;7.03;100.00;96740.41;5026515;28;20591;-48
2023/01/22 01:56:21;;;;;;;22.15;12.93;;;;;;;6.93;98.10;96745.50;5032086;28;20061;-50
2023/01/22 01:58:51;;;;;;;21.25;12.60;;;;;;;6.97;99.72;96743.47;5029503;28;20067;-51
2023/01/22 02:01:20;;;;;;;22.92;12.45;;;;;;;7.11;100.00;96740.66;5024080;28;20255;-47
2023/01/22 02:03:49;;;;;;;26.33;13.48;;;;;;;6.45;100.00;96748.19;5029878;28;20440;-48
2023/01/22 02:06:19;;;;;;;23.50;13.70;;;;;;;6.87;100.00;96744.16;5027407;28;20049;-47
2023/01/22 02:08:49;;;;;;;22.83;12.52;;;;;;;6.94;100.00;96741.09;5034641;28;20061;-51
2023/01/22 02:11:19;;;;;;;22.08;12.80;;;;;;;6.72;100.00;96750.56;5025460;28;20060;-46
2023/01/22 02:13:49;;;;;;;23.05;13.07;;;;;;;6.66;100.00;96751.00;5032642;28;20061;-48
2023/01/22 02:16:18;;;;;;;23.58;13.07;;;;;;;6.69;100.00;96749.94;5029697;28;20057;-53
2023/01/22 02:18:47;;;;;;;21.67;12.45;;;;;;;6.68;100.00;96758.78;5030737;28;20808;-51
2023/01/22 02:21:30;;;;;;;21.38;12.05;;;;;;;6.89;100.00;96750.13;5028698;28;20085;-46
2023/01/22 02:23:59;;;;;;;23.90;12.68;;;;;;;6.43;100.00;96755.31;5031537;28;20092;-48
2023/01/22 02:26:28;;;;;;;21.85;12.02;;;;;;;6.44;100.00;96754.38;5028666;28;20064;-49
2023/01/22 02:28:56;;;;;;;22.08;12.85;;;;;;;6.40;100.00;96761.63;5035151;28;20553;-47
2023/01/22 02:31:24;;;;;;;24.58;13.63;;;;;;;6.74;100.00;96759.13;5025576;28;20068;-47
2023/01/22 02:33:53;;;;;;;26.77;13.30;;;;;;;6.51;100.00;96762.63;5030070;28;20465;-51
2023/01/22 02:36:21;;;;;;;20.38;11.82;;;;;;;6.44;100.00;96774.50;5031848;28;20084;-48
2023/01/22 02:38:51;;;;;;;23.52;12.32;;;;;;;6.22;100.00;96757.69;5024752;28;20074;-49
2023/01/22 02:41:20;;;;;;;24.23;13.37;;;;;;;6.17;100.00;96767.69;5030097;28;20068;-46
2023/01/22 02:43:48;;;;;;;23.05;12.95;;;;;;;6.04;100.00;96764.25;5022783;28;20523;-53
2023/01/22 02:46:16;;;;;;;23.23;13.25;;;;;;;6.71;100.00;96761.13;5029429;28;20489;-52
2023/01/22 02:48:45;;;;;;;22.95;12.82;;;;;;;6.63;100.00;96753.84;5030427;28;20081;-49
2023/01/22 02:51:13;;;;;;;23.65;12.30;;;;;;;6.30;100.00;96765.03;5029647;28;20091;-47
2023/01/22 02:53:41;;;;;;;24.05;13.40;;;;;;;6.38;100.00;96762.66;5025073;28;20178;-51
2023/01/22 02:56:12;;;;;;;22.38;12.82;;;;;;;6.19;100.00;96763.16;5028240;28;20104;-52
2023/01/22 02:58:40;;;;;;;24.55;14.05;;;;;;;6.32;100.00;96757.88;5029588;28;21186;-46
2023/01/22 03:01:17;;;;;;;22.23;13.15;;;;;;;6.14;100.00;96757.41;5026154;28;20084;-47
2023/01/22 03:03:46;;;;;;;22.83;13.52;;;;;;;6.38;100.00;96758.25;5026596;28;20081;-51
2023/01/22 03:06:20;;;;;;;25.20;13.57;;;;;;;6.43;100.00;96750.06;5030010;28;20085;-48
2023/01/22 03:08:48;;;;;;;21.67;12.70;;;;;;;6.86;100.00;96752.97;5029792;28;20081;-52
2023/01/22 03:11:18;;;;;;;26.05;13.40;;;;;;;6.71;100.00;96754.13;5029755;28;20093;-50
2023/01/22 03:22:06;;;;;;;22.67;13.45;;;;;;;6.07;100.00;96762.25;5026492;28;20604;-48
2023/01/22 03:24:35;;;;;;;23.55;13.43;;;;;;;5.90;100.00;96755.56;5028290;28;20548;-45
2023/01/22 03:27:04;;;;;;;23.45;13.82;;;;;;;5.83;100.00;96758.72;5026921;28;20072;-49
2023/01/22 03:29:37;;;;;;;23.23;13.35;;;;;;;6.00;100.00;96766.25;5025163;28;20069;-44
2023/01/22 03:32:06;;;;;;;23.30;13.05;;;;;;;5.91;100.00;96754.59;5021732;28;20084;-48
2023/01/22 03:34:35;;;;;;;23.58;13.52;;;;;;;6.23;100.00;96763.75;5017633;28;20069;-49
2023/01/22 03:37:04;;;;;;;25.33;13.40;;;;;;;6.55;100.00;96762.28;5023528;28;20084;-51
2023/01/22 03:39:32;;;;;;;23.02;13.13;;;;;;;6.25;100.00;96767.94;5026543;28;20457;-52
2023/01/22 03:42:01;;;;;;;24.42;13.60;;;;;;;6.28;100.00;96767.72;5032881;28;20088;-48
2023/01/22 03:44:30;;;;;;;24.40;14.27;;;;;;;6.69;100.00;96765.69;5022953;28;20505;-48
2023/01/22 03:46:59;;;;;;;22.83;13.07;;;;;;;6.77;100.00;96760.69;5029158;28;20096;-49
2023/01/22 03:49:27;;;;;;;27.48;13.20;;;;;;;6.18;100.00;96777.19;5021854;28;20085;-50
2023/01/22 03:51:56;;;;;;;24.33;13.70;;;;;;;6.51;100.00;96775.72;5029433;28;20088;-50
2023/01/22 03:54:24;;;;;;;25.50;14.10;;;;;;;6.74;100.00;96774.03;5031199;28;20088;-53
2023/01/22 03:56:52;;;;;;;23.83;13.68;;;;;;;6.62;100.00;96770.53;5032625;28;20730;-50
2023/01/22 03:59:21;;;;;;;26.20;14.43;;;;;;;6.83;100.00;96779.44;5028860;28;20080;-49
2023/01/22 04:01:52;;;;;;;23.25;13.45;;;;;;;6.82;100.00;96769.06;5027034;28;20084;-51
2023/01/22 04:04:20;;;;;;;25.05;14.38;;;;;;;6.68;100.00;96780.56;5024000;28;20081;-47
2023/01/22 04:06:49;;;;;;;23.95;13.48;;;;;;;7.03;99.74;96771.88;5025991;28;20492;-48
2023/01/22 04:09:17;;;;;;;23.35;13.55;;;;;;;7.21;97.39;96770.47;5024483;28;20087;-47
2023/01/22 04:11:46;;;;;;;23.35;13.85;;;;;;;7.33;92.77;96773.97;5028386;28;20823;-50
2023/01/22 04:14:14;;;;;;;25.85;13.35;;;;;;;7.33;91.13;96769.56;5021515;28;20081;-51
2023/01/22 04:16:43;;;;;;;24.58;13.40;;;;;;;7.52;89.92;96768.13;5028148;28;20084;-50
2023/01/22 04:19:13;;;;;;;23.27;13.15;;;;;;;7.57;88.89;96776.47;5025985;28;20085;-50
2023/01/22 04:21:41;;;;;;;22.38;13.98;;;;;;;7.51;87.64;96776.97;5026278;28;20080;-53
2023/01/22 04:24:10;;;;;;;24.48;14.20;;;;;;;7.68;87.01;96780.94;5024997;28;20081;-48
2023/01/22 04:26:38;;;;;;;23.90;13.55;;;;;;;7.71;87.02;96781.53;5024668;28;20084;-48
2023/01/22 04:29:06;;;;;;;21.55;13.32;;;;;;;7.73;88.20;96778.75;5030258;28;20106;-53
2023/01/22 04:31:35;;;;;;;22.55;12.93;;;;;;;7.70;86.68;96784.25;5030086;28;20068;-45
2023/01/22 04:34:03;;;;;;;23.02;13.48;;;;;;;7.74;86.36;96781.28;5034640;28;20081;-46
2023/01/22 04:36:33;;;;;;;24.90;14.35;;;;;;;7.53;85.53;96793.41;5028920;28;20492;-48
2023/01/22 04:39:01;;;;;;;25.27;13.93;;;;;;;7.56;85.23;96794.00;5026718;28;20088;-48
2023/01/22 04:41:29;;;;;;;24.52;13.50;;;;;;;7.63;86.99;96793.56;5030270;28;20081;-48
2023/01/22 04:43:58;;;;;;;24.13;13.40;;;;;;;7.28;86.78;96797.06;5033402;28;20080;-46
2023/01/22 04:46:26;;;;;;;25.60;13.88;;;;;;;7.60;86.48;96792.00;5032205;28;20081;-47
2023/01/22 04:48:54;;;;;;;23.58;13.65;;;;;;;7.62;85.41;96795.34;5022742;28;20088;-52
2023/01/22 04:51:23;;;;;;;22.83;13.75;;;;;;;7.60;85.40;96795.47;5030088;28;20085;-52
2023/01/22 04:53:52;;;;;;;27.20;13.63;;;;;;;7.54;84.41;96803.81;5028856;28;20533;-54
2023/01/22 04:56:21;;;;;;;24.38;13.85;;;;;;;7.55;84.81;96796.78;5019857;28;20155;-53
2023/01/22 04:58:49;;;;;;;23.13;13.18;;;;;;;7.49;85.31;96807.72;5023831;28;20089;-50
2023/01/22 05:01:17;;;;;;;25.85;14.15;;;;;;;7.39;84.60;96804.97;5027295;28;20085;-52
2023/01/22 05:03:46;;;;;;;24.75;13.38;;;;;;;7.23;83.59;96802.69;5026828;28;20084;-51
2023/01/22 05:06:14;;;;;;;30.30;14.43;;;;;;;7.15;82.72;96802.41;5033685;28;20076;-50
2023/01/22 05:08:42;;;;;;;24.95;13.82;;;;;;;7.18;81.23;96807.41;5028259;28;20084;-47
2023/01/22 05:11:12;;;;;;;25.63;13.68;;;;;;;7.18;80.18;96815.28;5021086;28;20081;-48
2023/01/22 05:13:40;;;;;;;24.83;14.32;;;;;;;6.96;80.96;96815.22;5026467;28;20077;-49
2023/01/22 05:16:09;;;;;;;23.02;13.10;;;;;;;6.84;79.92;96812.53;5025705;28;20639;-48
2023/01/22 05:18:37;;;;;;;24.15;13.43;;;;;;;6.90;78.96;96816.50;5025469;28;20085;-49
2023/01/22 05:21:05;;;;;;;24.02;13.40;;;;;;;6.85;77.13;96819.47;5028731;28;20085;-43
2023/01/22 05:23:34;;;;;;;23.98;13.20;;;;;;;6.69;78.48;96821.53;5031456;28;20116;-45
2023/01/22 05:26:02;;;;;;;26.08;13.27;;;;;;;6.53;82.34;96827.03;5019689;28;20478;-49
2023/01/22 05:28:32;;;;;;;23.23;12.57;;;;;;;6.56;84.96;96828.63;5028946;28;20096;-54
2023/01/22 05:31:00;;;;;;;22.40;13.07;;;;;;;6.56;86.93;96828.63;5022679;28;20080;-48
2023/01/22 05:33:28;;;;;;;101.78;15.02;;;;;;;6.47;88.20;96831.88;5023676;28;20084;-47
2023/01/22 05:35:57;;;;;;;108.97;14.43;;;;;;;6.09;92.78;96836.31;5025510;28;20076;-48
2023/01/22 05:38:26;;;;;;;203.50;15.68;;;;;;;6.16;91.57;96839.31;5024052;28;20085;-50
2023/01/22 05:40:54;;;;;;;192.63;14.85;;;;;;;6.33;91.77;96846.81;5026417;28;20524;-52
2023/01/22 05:43:23;;;;;;;89.57;12.27;;;;;;;6.31;91.61;96840.03;5029762;28;20077;-45
2023/01/22 05:45:52;;;;;;;191.05;14.68;;;;;;;6.29;90.43;96849.75;5031656;28;20088;-52
2023/01/22 05:48:21;;;;;;;49.53;12.50;;;;;;;6.13;84.84;96848.22;5023531;28;20137;-55
2023/01/22 05:50:49;;;;;;;24.45;11.65;;;;;;;6.06;84.83;96846.16;5029280;28;20508;-47
2023/01/22 05:53:17;;;;;;;101.38;12.13;;;;;;;5.97;87.69;96844.16;5022380;28;20100;-53
2023/01/22 05:55:46;;;;;;;22.80;10.68;;;;;;;6.02;85.73;96855.13;5031993;28;20068;-50
2023/01/22 05:58:14;;;;;;;30.63;11.50;;;;;;;5.94;85.49;96848.66;5028224;28;20084;-48
2023/01/22 06:00:42;;;;;;;21.75;11.68;;;;;;;5.91;83.56;96853.25;5026007;28;20084;-43
2023/01/22 06:03:12;;;;;;;18.25;10.05;;;;;;;6.04;84.01;96858.50;5028122;28;20091;-46
2023/01/22 06:05:40;;;;;;;94.40;11.03;;;;;;;6.05;87.64;96866.22;5024757;28;20080;-52
2023/01/22 06:08:08;;;;;;;20.50;9.52;;;;;;;5.43;83.80;96864.31;5026730;28;20088;-48
2023/01/22 06:10:37;;;;;;;17.40;8.82;;;;;;;5.77;83.74;96864.66;5031353;28;20081;-48
2023/01/22 06:13:05;;;;;;;67.50;9.95;;;;;;;5.88;84.61;96866.53;5030292;28;20092;-47
2023/01/22 06:15:33;;;;;;;21.08;9.40;;;;;;;5.93;80.56;96872.34;5023215;28;20529;-49
2023/01/22 06:18:03;;;;;;;51.50;8.48;;;;;;;6.00;83.85;96865.72;5028392;28;20077;-51
2023/01/22 06:20:33;;;;;;;56.55;8.70;;;;;;;5.63;84.02;96855.13;5023643;28;20085;-50
2023/01/22 06:23:01;;;;;;;52.23;10.30;;;;;;;5.37;82.00;96866.53;5025469;28;20112;-49
2023/01/22 06:25:29;;;;;;;30.38;7.95;;;;;;;5.70;86.08;96866.03;5023125;28;20077;-54
2023/01/22 06:27:58;;;;;;;61.03;10.05;;;;;;;5.54;85.46;96865.38;5024678;28;20077;-55
2023/01/22 06:30:26;;;;;;;17.63;8.55;;;;;;;5.75;85.16;96868.31;5026869;28;20087;-51
2023/01/22 06:32:54;;;;;;;17.55;9.30;;;;;;;5.70;85.59;96866.84;5032717;28;20080;-48
2023/01/22 06:35:23;;;;;;;16.50;9.38;;;;;;;5.64;85.54;96869.91;5021093;28;20077;-51
2023/01/22 06:37:53;;;;;;;15.45;9.18;;;;;;;5.72;86.42;96875.44;5029777;28;20087;-46
2023/01/22 06:40:21;;;;;;;20.25;10.50;;;;;;;5.46;84.69;96874.56;5022283;28;20541;-48
2023/01/22 06:42:49;;;;;;;17.88;10.15;;;;;;;5.57;82.49;96881.69;5022195;28;20083;-52
2023/01/22 06:45:17;;;;;;;20.77;10.63;;;;;;;5.72;87.06;96880.69;5021687;28;20138;-49
2023/01/22 06:47:46;;;;;;;20.70;11.60;;;;;;;5.83;86.70;96872.09;5020707;28;20990;-51
2023/01/22 06:50:15;;;;;;;21.02;11.27;;;;;;;5.86;87.21;96876.28;5022817;28;20084;-52
2023/01/22 06:52:44;;;;;;;18.73;10.18;;;;;;;5.37;79.65;96885.69;5020849;28;20100;-50
2023/01/22 06:55:14;;;;;;;18.92;10.32;;;;;;;5.76;77.63;96883.94;5026416;28;20090;-52
2023/01/22 06:57:42;;;;;;;22.52;12.23;;;;;;;5.74;74.46;96880.56;5024517;28;20208;-46
2023/01/22 07:00:11;;;;;;;19.98;10.85;;;;;;;5.39;74.41;96893.41;5026335;28;20092;-49
2023/01/22 07:02:41;;;;;;;19.42;10.32;;;;;;;5.51;76.72;96887.38;5025942;28;20481;-45
2023/01/22 07:05:09;;;;;;;16.52;10.18;;;;;;;5.67;78.18;96888.00;5028083;28;20478;-51
2023/01/22 07:07:38;;;;;;;17.40;10.90;;;;;;;6.00;82.88;96898.94;5025731;28;20088;-48
2023/01/22 07:10:07;;;;;;;17.80;10.63;;;;;;;4.93;78.78;96899.88;5029204;28;20085;-53
2023/01/22 07:12:36;;;;;;;19.85;10.70;;;;;;;4.98;81.91;96910.84;5029563;28;20081;-49
2023/01/22 07:15:06;;;;;;;21.17;11.77;;;;;;;5.74;79.51;96909.34;5026579;28;20776;-47
2023/01/22 07:17:36;;;;;;;20.25;10.35;;;;;;;5.46;78.04;96910.38;5032358;28;20081;-50
2023/01/22 07:20:05;;;;;;;18.88;10.23;;;;;;;4.76;73.88;96915.78;5028419;28;20665;-46
2023/01/22 07:22:33;;;;;;;28.55;13.13;;;;;;;3.99;74.15;96924.91;5032318;28;20081;-54
2023/01/22 07:25:02;;;;;;;17.83;9.73;;;;;;;3.23;95.37;96935.47;5030107;28;20159;-53
2023/01/22 07:27:31;;;;;;;13.82;8.82;;;;;;;2.99;100.00;96942.91;5027219;28;20076;-51
2023/01/22 07:30:02;;;;;;;18.85;10.10;;;;;;;3.27;100.00;96940.44;5031719;28;20068;-48
2023/01/22 07:32:31;;;;;;;17.88;9.93;;;;;;;3.63;100.00;96933.19;5024069;28;20084;-50
2023/01/22 07:34:59;;;;;;;18.42;9.98;;;;;;;3.91;100.00;96933.22;5030242;28;20084;-50
2023/01/22 07:37:27;;;;;;;19.50;10.40;;;;;;;3.37;100.00;96945.94;5028917;28;20088;-51
2023/01/22 07:39:56;;;;;;;17.13;9.75;;;;;;;4.44;100.00;96938.69;5029764;28;20088;-49
2023/01/22 07:42:24;;;;;;;18.30;10.43;;;;;;;4.94;91.67;96930.28;5026445;28;20080;-50
2023/01/22 07:44:52;;;;;;;18.58;10.02;;;;;;;5.04;85.44;96927.09;5028427;28;20089;-52
2023/01/22 07:47:22;;;;;;;17.90;10.02;;;;;;;5.01;83.41;96925.50;5027814;28;20081;-48
2023/01/22 07:49:50;;;;;;;18.90;10.07;;;;;;;5.42;81.25;96924.59;5027648;28;20081;-45
2023/01/22 07:52:20;;;;;;;19.58;10.90;;;;;;;5.82;79.28;96921.94;5031474;28;20091;-46
2023/01/22 07:54:48;;;;;;;17.58;10.32;;;;;;;5.87;73.53;96925.91;5033405;28;20464;-52
2023/01/22 07:57:17;;;;;;;19.60;10.90;;;;;;;5.94;72.41;96921.94;5025858;28;20088;-48
2023/01/22 07:59:45;;;;;;;18.60;10.82;;;;;;;4.84;77.39;96925.75;5026055;28;20073;-48
2023/01/22 08:02:15;;;;;;;21.27;11.48;;;;;;;5.87;75.39;96919.84;5024305;28;20077;-49
2023/01/22 08:04:44;;;;;;;20.95;11.38;;;;;;;5.78;71.87;96925.69;5030654;28;20092;-49
2023/01/22 08:07:15;;;;;;;20.05;11.07;;;;;;;5.53;75.15;96936.94;5022763;28;20088;-48
2023/01/22 08:09:44;;;;;;;20.20;11.40;;;;;;;5.55;79.35;96935.91;5027273;28;20088;-51
2023/01/22 08:12:12;;;;;;;18.75;11.10;;;;;;;5.08;95.25;96949.47;5028468;28;20119;-48
2023/01/22 08:14:40;;;;;;;22.38;12.35;;;;;;;5.89;82.14;96942.34;5026765;28;20503;-53
2023/01/22 08:17:09;;;;;;;20.50;11.05;;;;;;;6.28;81.20;96945.81;5029879;28;20088;-46
2023/01/22 08:19:37;;;;;;;20.33;11.68;;;;;;;6.62;78.93;96940.84;5026811;28;20129;-48
2023/01/22 08:22:07;;;;;;;21.10;12.68;;;;;;;6.90;79.75;96950.22;5026283;28;20368;-45
2023/01/22 08:24:35;;;;;;;22.77;13.05;;;;;;;6.35;78.54;96957.56;5025835;28;20077;-46
2023/01/22 08:27:04;;;;;;;25.52;13.95;;;;;;;6.58;85.15;96960.38;5024436;28;20073;-50
2023/01/22 08:29:32;;;;;;;23.27;12.27;;;;;;;6.34;85.86;96961.13;5025915;28;20538;-51
2023/01/22 08:32:00;;;;;;;20.25;12.68;;;;;;;6.47;88.48;96955.00;5023412;28;20115;-50
2023/01/22 08:34:29;;;;;;;21.73;12.00;;;;;;;5.86;96.33;96966.09;5026716;28;20088;-51
2023/01/22 08:36:57;;;;;;;22.15;12.85;;;;;;;6.35;94.59;96964.56;5027791;28;20084;-47
2023/01/22 08:39:27;;;;;;;23.10;12.38;;;;;;;6.11;97.95;96969.72;5027945;28;20081;-48
2023/01/22 08:41:56;;;;;;;20.97;12.73;;;;;;;6.53;93.84;96965.91;5028052;28;20088;-48
2023/01/22 08:44:25;;;;;;;21.65;12.18;;;;;;;6.65;89.83;96970.31;5023944;28;20085;-45
2023/01/22 08:46:53;;;;;;;22.25;12.48;;;;;;;7.44;81.10;96970.78;5024301;28;20084;-51
2023/01/22 08:49:21;;;;;;;22.60;12.80;;;;;;;5.87;99.51;96978.25;5026018;28;20080;-50
2023/01/22 08:51:50;;;;;;;24.58;13.50;;;;;;;6.77;94.22;96978.25;5024230;28;20084;-45
2023/01/22 08:54:18;;;;;;;74.00;27.60;;;;;;;7.25;93.36;96975.69;5028218;28;20537;-48
2023/01/22 08:56:48;;;;;;;131.35;54.85;;;;;;;6.73;94.43;96982.03;5028981;28;20542;-46
2023/01/22 08:59:16;;;;;;;243.93;97.18;;;;;;;7.25;87.46;96973.88;5026270;28;20077;-49
2023/01/22 09:01:44;;;;;;;249.77;106.72;;;;;;;7.64;81.80;96976.31;5027664;28;20092;-53
2023/01/22 09:04:13;;;;;;;24.08;14.43;;;;;;;7.23;82.86;96993.34;5032330;28;21668;-49
2023/01/22 09:06:41;;;;;;;21.02;13.18;;;;;;;7.43;83.73;96994.47;5032498;28;20104;-51
2023/01/22 09:09:09;;;;;;;21.40;13.00;;;;;;;7.27;82.95;97008.72;5029944;28;20092;-48
2023/01/22 09:11:38;;;;;;;20.30;13.00;;;;;;;7.17;81.31;97010.34;5034496;28;20473;-45
2023/01/22 09:14:08;;;;;;;20.95;12.60;;;;;;;7.46;83.98;97013.47;5025725;28;20087;-46
2023/01/22 09:16:37;;;;;;;24.38;13.25;;;;;;;6.60;88.79;97014.31;5029075;28;20079;-50
2023/01/22 09:19:05;;;;;;;20.02;12.35;;;;;;;7.50;84.36;97014.06;5019889;28;20143;-51
2023/01/22 09:21:36;;;;;;;20.42;12.25;;;;;;;7.55;78.17;97025.09;5029533;28;20521;-49
2023/01/22 09:24:05;;;;;;;21.92;11.95;;;;;;;7.35;81.42;97026.53;5035421;28;20060;-49
2023/01/22 09:26:33;;;;;;;17.35;10.93;;;;;;;7.82;77.55;97027.47;5029737;28;20112;-51
2023/01/22 09:29:04;;;;;;;20.55;12.10;;;;;;;8.32;73.21;97026.28;5032281;28;20068;-54
2023/01/22 09:31:35;;;;;;;22.23;13.00;;;;;;;8.51;67.76;97019.69;5026030;28;20406;-49
2023/01/22 09:34:04;;;;;;;23.08;13.57;;;;;;;7.74;70.44;97027.19;5036887;28;20072;-50
2023/01/22 09:36:32;;;;;;;26.60;16.58;;;;;;;7.63;73.14;97027.97;5027121;28;20131;-47
2023/01/22 09:39:00;;;;;;;26.35;15.13;;;;;;;7.73;77.89;97028.97;5030294;28;20449;-52
2023/01/22 09:41:32;;;;;;;26.15;15.85;;;;;;;6.78;84.26;97037.56;5028472;28;20539;-55
2023/01/22 09:44:05;;;;;;;27.30;16.70;;;;;;;6.24;98.41;97036.03;5025468;28;20457;-49
2023/01/22 09:46:37;;;;;;;27.30;15.82;;;;;;;7.32;85.26;97032.00;5034964;28;20460;-50
2023/01/22 09:49:10;;;;;;;27.73;16.27;;;;;;;7.01;90.23;97035.97;5028727;28;20088;-51
2023/01/22 09:51:39;;;;;;;27.52;15.95;;;;;;;7.75;83.84;97028.88;5022258;28;20089;-46
2023/01/22 09:54:07;;;;;;;25.88;15.55;;;;;;;7.58;81.17;97027.50;5023352;28;20072;-49
2023/01/22 09:56:40;;;;;;;26.60;14.70;;;;;;;7.01;88.54;97033.34;5024489;28;20085;-52
2023/01/22 09:59:15;;;;;;;24.67;14.38;;;;;;;8.15;76.27;97023.28;5024816;28;20088;-48
2023/01/22 10:01:46;;;;;;;23.52;14.15;;;;;;;7.32;86.02;97022.34;5024132;28;20076;-49
2023/01/22 10:04:26;;;;;;;23.42;14.00;;;;;;;7.56;83.18;97030.22;5026495;28;20073;-51
2023/01/22 10:06:55;;;;;;;;;;;;;;;7.50;85.44;97025.44;5028060;28;20072;-47
2023/01/22 10:09:24;;;;;;;23.95;14.25;;;;;;;7.81;81.13;97018.78;5025516;28;20407;-48
2023/01/22 10:11:54;;;;;;;21.92;12.45;;;;;;;7.94;82.09;97023.09;5024205;28;20524;-48
2023/01/22 10:14:23;;;;;;;25.38;14.30;;;;;;;7.90;74.74;97027.75;5020103;28;20077;-51
2023/01/22 10:16:53;;;;;;;25.80;14.27;;;;;;;7.90;77.12;97029.53;5025011;28;20076;-53
2023/01/22 10:19:24;;;;;;;22.45;13.27;;;;;;;8.46;73.05;97027.06;5025702;28;20077;-49
2023/01/22 10:21:56;;;;;;;22.23;12.45;;;;;;;8.25;71.06;97030.34;5023601;28;20068;-49
2023/01/22 10:24:25;;;;;;;25.35;15.05;;;;;;;8.06;73.29;97036.16;5022165;28;20065;-52
2023/01/22 10:26:55;;;;;;;23.50;14.27;;;;;;;8.23;74.20;97034.88;5022747;28;20120;-50
2023/01/22 10:29:26;;;;;;;23.95;13.88;;;;;;;7.05;81.37;97040.03;5025104;28;20091;-50
2023/01/22 10:31:57;;;;;;;22.98;13.48;;;;;;;7.39;83.84;97038.47;5025396;28;20072;-48
2023/01/22 10:34:31;;;;;;;24.48;13.85;;;;;;;7.37;86.01;97035.97;5029000;28;20123;-53
2023/01/22 10:37:01;;;;;;;24.17;14.27;;;;;;;7.58;80.77;97040.63;5029279;28;20064;-49
2023/01/22 10:39:39;;;;;;;27.77;15.23;;;;;;;8.48;72.20;97022.53;5033267;28;20056;-53
2023/01/22 10:42:14;;;;;;;28.75;16.60;;;;;;;9.10;72.80;97024.69;5024425;28;20536;-50
2023/01/22 10:44:42;;;;;;;32.22;19.02;;;;;;;8.84;67.66;97025.91;5031013;28;20854;-54
2023/01/22 10:47:19;;;;;;;28.92;17.10;;;;;;;8.07;72.68;97029.09;5028644;28;20081;-49
2023/01/22 10:49:48;;;;;;;28.65;15.00;;;;;;;8.70;71.58;97030.44;5032155;28;20069;-49
2023/01/22 10:52:22;;;;;;;27.90;16.48;;;;;;;8.27;68.10;97031.06;5028827;28;20536;-52
2023/01/22 10:54:54;;;;;;;28.67;17.02;;;;;;;8.44;71.89;97018.47;5024949;28;20073;-48
2023/01/22 10:57:25;;;;;;;25.45;16.50;;;;;;;8.05;70.73;97023.13;5036663;28;20061;-52
2023/01/22 11:00:01;;;;;;;28.38;17.55;;;;;;;7.55;75.54;97039.06;5023815;28;20084;-50
2023/01/22 11:02:34;;;;;;;31.40;18.42;;;;;;;8.73;69.27;97013.59;5030634;28;20592;-53
2023/01/22 11:05:16;;;;;;;34.90;19.75;;;;;;;7.69;76.81;97029.34;5029402;28;20092;-50
2023/01/22 11:07:46;;;;;;;23.13;14.13;;;;;;;8.41;73.91;97013.47;5029472;28;20462;-55
2023/01/22 11:10:20;;;;;;;28.83;15.77;;;;;;;7.31;79.94;97030.31;5024740;28;20462;-56
2023/01/22 11:12:51;;;;;;;23.33;14.35;;;;;;;6.95;82.08;97033.78;5029753;28;20073;-55
2023/01/22 11:15:24;;;;;;;23.92;13.88;;;;;;;8.20;74.73;97021.97;5025702;28;20451;-47
2023/01/22 11:17:56;;;;;;;22.85;13.77;;;;;;;7.96;70.97;97027.28;5027541;28;20115;-53
2023/01/22 11:20:27;;;;;;;21.60;12.90;;;;;;;8.77;70.94;97021.13;5024492;28;20065;-50
2023/01/22 11:23:03;;;;;;;23.25;13.65;;;;;;;8.82;70.54;97026.03;5029937;28;20081;-52
2023/01/22 11:25:37;;;;;;;20.63;12.23;;;;;;;7.49;74.11;97033.41;5030170;28;20076;-51
2023/01/22 11:28:14;;;;;;;25.88;15.55;;;;;;;8.74;72.09;97016.13;5030116;28;20493;-56
2023/01/22 11:31:05;;;;;;;23.35;15.18;;;;;;;7.51;76.84;97031.53;5029078;28;20076;-53
2023/01/22 11:33:51;;;;;;;27.48;16.88;;;;;;;8.15;72.53;97021.47;5022381;28;20072;-51
2023/01/22 11:36:24;;;;;;;37.58;20.58;;;;;;;8.21;69.85;97017.56;5024690;28;20084;-52
2023/01/22 11:38:55;;;;;;;28.83;18.40;;;;;;;7.75;76.27;97028.88;5027602;28;20092;-49
2023/01/22 11:41:33;;;;;;;32.58;19.45;;;;;;;8.73;68.80;97013.59;5024421;28;20085;-51
2023/01/22 11:44:33;;;;;;;26.83;15.13;;;;;;;8.37;71.81;97010.19;5021587;28;20647;-55